Data for 07/02/2007

Time Sea-Level Adjusted Pressure Absolute Pressure Temperature Relative Humidity Dew Point   
(mb) (inHg) (mb) (inHg) (C) (F) (%) (C) (F)
00:05 1018 30.06 847 25.01 22.9 73.3 40 8.8 47.9
00:10 1018 30.06 847 25.01 22.8 73.1 40 8.8 47.8
00:15 1018 30.06 847 25.01 22.7 72.8 41 9 48.3
00:20 1018 30.06 847 25.01 22.4 72.4 41 8.7 47.6
00:25 1018 30.06 847 25.01 22.4 72.4 40 8.5 47.2
00:30 1018 30.06 847 25.01 22.4 72.3 40 8.2 46.8
00:35 1018 30.06 847 25.01 22.7 72.9 37 7.6 45.6
00:40 1018 30.06 847 25.01 23.1 73.5 36 7.5 45.5
00:45 1018 30.06 847 25.01 22.6 72.6 39 8.1 46.6
00:50 1018 30.06 847 25.01 22.2 71.9 39 7.6 45.7
00:55 1018 30.06 848 25.04 22 71.5 38 7.3 45.1
01:00 1018 30.06 848 25.04 21.6 70.9 39 7.4 45.2
01:05 1018 30.06 847 25.01 21.7 71 39 7.4 45.4
01:10 1018 30.06 848 25.04 21.7 71 40 7.5 45.4
01:15 1018 30.06 847 25.01 21.6 71 39 7.4 45.3
01:20 1018 30.06 848 25.04 21.7 71 41 7.9 46.2
01:25 1018 30.06 848 25.04 21.5 70.8 42 8.2 46.8
01:30 1018 30.06 848 25.04 21.5 70.7 43 8.4 47.1
01:35 1018 30.06 848 25.04 21.4 70.5 43 8.5 47.4
01:40 1019 30.09 848 25.04 21.3 70.3 43 8.5 47.3
01:45 1019 30.09 848 25.04 21.3 70.3 44 8.6 47.5
01:50 1018 30.06 848 25.04 21.2 70.2 45 8.9 48
01:55 1019 30.09 848 25.04 21 69.8 45 8.9 48
02:00 1019 30.09 848 25.04 21 69.8 45 8.9 48
02:05 1019 30.09 848 25.04 20.9 69.6 46 9 48.3
02:10 1019 30.09 848 25.04 20.8 69.4 46 8.9 48.1
02:15 1019 30.09 848 25.04 20.9 69.7 46 9.1 48.4
02:20 1019 30.09 848 25.04 20.9 69.6 46 9.1 48.4
02:25 1019 30.09 848 25.04 20.8 69.4 47 9.2 48.6
02:30 1019 30.09 848 25.04 20.4 68.6 49 9.4 49
02:35 1019 30.09 848 25.04 20 68 49 9.3 48.7
02:40 1019 30.09 848 25.04 20.1 68.1 50 9.4 48.9
02:45 1019 30.09 848 25.04 20 67.9 50 9.4 49
02:50 1019 30.09 848 25.04 19.7 67.5 51 9.5 49.1
02:55 1019 30.09 848 25.04 19.6 67.2 52 9.6 49.3
03:00 1019 30.09 848 25.04 19.5 67 52 9.5 49
03:05 1019 30.09 848 25.04 19.6 67.2 52 9.5 49.1
03:10 1019 30.09 848 25.04 19.7 67.5 51 9.5 49.2
03:15 1019 30.09 848 25.04 19.5 67.2 53 9.7 49.5
03:20 1019 30.09 848 25.04 19.3 66.8 53 9.7 49.5
03:25 1019 30.09 848 25.04 19.3 66.7 54 9.8 49.6
03:30 1019 30.09 848 25.04 19.2 66.5 54 9.8 49.6
03:35 1019 30.09 848 25.04 19.3 66.7 54 9.9 49.8
03:40 1019 30.09 849 25.07 19.2 66.6 55 10 49.9
03:45 1019 30.09 849 25.07 19.1 66.4 55 10 49.9
03:50 1019 30.09 849 25.07 19 66.2 53 9.4 49
03:55 1019 30.09 848 25.04 17.6 63.7 60 9.8 49.7
04:00 1019 30.09 848 25.04 16.7 62 60 9 48.1
04:05 1019 30.09 848 25.04 16.2 61.2 60 8.6 47.5
04:10 1019 30.09 848 25.04 16 60.9 61 8.5 47.4
04:15 1019 30.09 848 25.04 16 60.8 62 8.7 47.7
04:20 1019 30.09 848 25.04 16.4 61.4 63 9.5 49.1
04:25 1019 30.09 848 25.04 17.2 62.9 61 9.6 49.3
04:30 1019 30.09 849 25.07 17.8 64.1 60 10 50
04:35 1019 30.09 849 25.07 17.8 64.1 61 10.2 50.4
04:40 1019 30.09 849 25.07 18.1 64.5 60 10.2 50.4
04:45 1019 30.09 848 25.04 18.3 64.9 59 10.2 50.3
04:50 1019 30.09 849 25.07 18.5 65.2 59 10.4 50.6
04:55 1019 30.09 849 25.07 18.6 65.4 58 10.4 50.6
05:00 1019 30.09 849 25.07 18.6 65.5 58 10.4 50.7
05:05 1019 30.09 849 25.07 18.5 65.3 59 10.6 51
05:10 1019 30.09 849 25.07 18.4 65.1 60 10.5 50.9
05:15 1019 30.09 849 25.07 18.3 65 60 10.6 51
05:20 1019 30.09 849 25.07 18.3 64.9 60 10.6 51
05:25 1019 30.09 849 25.07 18.2 64.8 61 10.6 51.2
05:30 1019 30.09 849 25.07 18.2 64.7 61 10.7 51.2
05:35 1019 30.09 849 25.07 18.2 64.8 61 10.7 51.2
05:40 1019 30.09 849 25.07 18.2 64.8 61 10.7 51.3
05:45 1019 30.09 849 25.07 18.1 64.7 62 10.8 51.5
05:50 1019 30.09 849 25.07 18.1 64.5 62 10.8 51.4
05:55 1019 30.09 849 25.07 17.9 64.3 63 10.8 51.5
06:00 1019 30.09 849 25.07 17.8 64.1 63 10.8 51.4
06:05 1019 30.09 849 25.07 17.8 64 63 10.7 51.3
06:10 1019 30.09 849 25.07 17.8 64 63 10.8 51.4
06:15 1019 30.09 849 25.07 17.8 64 63 10.7 51.3
06:20 1019 30.09 849 25.07 17.8 64 63 10.8 51.4
06:25 1019 30.09 849 25.07 17.9 64.1 63 10.7 51.3
06:30 1019 30.09 849 25.07 17.9 64.2 63 10.7 51.3
06:35 1019 30.09 849 25.07 18 64.4 62 10.8 51.4
06:40 1019 30.09 849 25.07 18 64.5 62 10.8 51.4
06:45 1019 30.09 849 25.07 18 64.4 62 10.7 51.2
06:50 1020 30.12 849 25.07 18 64.3 62 10.6 51.1
06:55 1020 30.12 849 25.07 18.1 64.6 61 10.7 51.2
07:00 1020 30.12 849 25.07 18.2 64.7 61 10.6 51
07:05 1020 30.12 849 25.07 18.1 64.6 61 10.7 51.2
07:10 1020 30.12 849 25.07 18.3 64.9 61 10.7 51.3
07:15 1020 30.12 849 25.07 18.5 65.2 61 10.9 51.7
07:20 1020 30.12 849 25.07 18.3 65 62 11 51.8
07:25 1020 30.12 849 25.07 18.6 65.5 63 11.6 52.9
07:30 1020 30.12 849 25.07 18.8 65.9 59 10.8 51.5
07:35 1020 30.12 849 25.07 19 66.2 60 11.1 52
07:40 1020 30.12 849 25.07 19.4 66.9 58 10.9 51.6
07:45 1020 30.12 849 25.07 20 68 55 10.7 51.3
07:50 1020 30.12 849 25.07 20.2 68.3 55 11 51.8
07:55 1020 30.12 849 25.07 20.2 68.4 54 10.8 51.4
08:00 1020 30.12 849 25.07 20.5 68.9 54 11 51.7
08:05 1020 30.12 849 25.07 20.7 69.2 53 10.9 51.7
08:10 1020 30.12 849 25.07 20.8 69.4 53 11 51.9
08:15 1020 30.12 849 25.07 20.8 69.4 54 11.2 52.1
08:20 1020 30.12 849 25.07 20.8 69.5 53 10.9 51.7
08:25 1020 30.12 849 25.07 20.9 69.6 53 11 51.8
08:30 1020 30.12 849 25.07 21.2 70.2 52 11.2 52.1
08:35 1020 30.12 849 25.07 21.6 71 50 10.9 51.7
08:40 1020 30.12 849 25.07 21.7 71.1 48 10.4 50.7
08:45 1020 30.12 849 25.07 21.8 71.3 49 10.7 51.3
08:50 1020 30.12 849 25.07 22.2 71.9 46 10.2 50.4
08:55 1020 30.12 849 25.07 22.4 72.2 47 10.7 51.3
09:00 1020 30.12 849 25.07 22.7 72.9 45 10.2 50.3
09:05 1020 30.12 849 25.07 22.9 73.1 43 9.9 49.8
09:10 1020 30.12 849 25.07 23.1 73.6 44 10.5 50.9
09:15 1020 30.12 849 25.07 23.5 74.4 41 9.9 49.8
09:20 1020 30.12 849 25.07 23.5 74.3 42 9.9 49.9
09:25 1020 30.12 849 25.07 23.4 74.2 42 10.1 50.2
09:30 1020 30.12 849 25.07 23.7 74.6 43 10.5 50.9
09:35 1020 30.12 849 25.07 24.2 75.5 43 11 51.9
09:40 1020 30.12 849 25.07 23.9 75.1 43 10.8 51.5
09:45 1020 30.12 849 25.07 24.2 75.6 42 10.9 51.6
09:50 1020 30.12 849 25.07 24.2 75.5 45 11.8 53.3
09:55 1020 30.12 849 25.07 23.8 74.9 44 11.1 52
10:00 1020 30.12 849 25.07 24 75.1 45 11.5 52.7
10:05 1020 30.12 849 25.07 24 75.2 43 10.9 51.6
10:10 1020 30.12 849 25.07 24.2 75.6 44 11.3 52.3
10:15 1020 30.12 849 25.07 24.8 76.7 40 10.7 51.2
10:20 1020 30.12 849 25.07 25.5 77.9 41 11.4 52.4
10:25 1020 30.12 849 25.07 25.1 77.2 41 11.1 52
10:30 1020 30.12 849 25.07 24.9 76.8 42 11.4 52.5
10:35 1020 30.12 849 25.07 25.6 78.1 39 10.9 51.6
10:40 1020 30.12 849 25.07 26.5 79.7 38 11.4 52.5
10:45 1019 30.09 849 25.07 26.4 79.5 39 11.5 52.6
10:50 1019 30.09 849 25.07 25.8 78.4 40 11.2 52.2
10:55 1019 30.09 849 25.07 25.9 78.6 40 11.6 52.9
11:00 1019 30.09 849 25.07 25.7 78.2 39 10.9 51.6
11:05 1019 30.09 849 25.07 25.8 78.5 39 10.9 51.7
11:10 1019 30.09 849 25.07 26.4 79.5 35 10.1 50.2
11:15 1019 30.09 849 25.07 27.1 80.8 35 10.5 50.8
11:20 1019 30.09 848 25.04 26.1 79 38 11 51.9
11:25 1019 30.09 848 25.04 26.4 79.6 35 10.1 50.2
11:30 1019 30.09 848 25.04 27.1 80.8 34 10.1 50.3
11:35 1019 30.09 848 25.04 28 82.5 31 9.8 49.6
11:40 1019 30.09 848 25.04 27.9 82.2 31 9.6 49.2
11:45 1019 30.09 848 25.04 28.5 83.2 30 9.5 49
11:50 1019 30.09 848 25.04 28.3 82.9 31 9.7 49.5
11:55 1019 30.09 848 25.04 28.6 83.5 29 8.9 48
12:00 1019 30.09 848 25.04 28.5 83.2 31 9.8 49.6
12:05 1019 30.09 848 25.04 28 82.3 29 8.7 47.7
12:10 1019 30.09 848 25.04 29.1 84.4 28 8.9 48
12:15 1019 30.09 848 25.04 29.7 85.5 26 8.7 47.6
12:20 1019 30.09 848 25.04 28.9 84 29 9.4 49
12:25 1019 30.09 848 25.04 29.3 84.8 27 8.9 47.9
12:30 1019 30.09 848 25.04 29.7 85.4 25 8.2 46.7
12:35 1019 30.09 848 25.04 29.3 84.7 28 9.3 48.8
12:40 1019 30.09 848 25.04 29.2 84.6 25 7.3 45.1
12:45 1019 30.09 848 25.04 29.1 84.4 25 7.2 45
12:50 1019 30.09 848 25.04 29.5 85.2 24 7.2 44.9
12:55 1019 30.09 848 25.04 29.9 85.8 19 4.1 39.4
13:00 1019 30.09 848 25.04 29.8 85.6 17 2.4 36.4
13:05 1019 30.09 848 25.04 29.4 85 16 1.7 35
13:10 1018 30.06 848 25.04 30 86 18 3.4 38.1
13:15 1018 30.06 848 25.04 29.6 85.3 19 3.8 38.8
13:20 1018 30.06 848 25.04 29.5 85.1 17 2.6 36.7
13:25 1018 30.06 848 25.04 30 86.1 17 2.3 36.2
13:30 1018 30.06 848 25.04 30.5 86.9 16 2.4 36.3
13:35 1018 30.06 848 25.04 30.6 87 18 4 39.3
13:40 1018 30.06 847 25.01 30.4 86.7 17 3.2 37.8
13:45 1018 30.06 847 25.01 30.9 87.7 19 4.6 40.3
13:50 1018 30.06 847 25.01 31.3 88.4 16 3.3 37.9
13:55 1018 30.06 847 25.01 31.3 88.3 17 4 39.2
14:00 1018 30.06 847 25.01 31 87.9 16 2.5 36.4
14:05 1018 30.06 847 25.01 32 89.5 15 2.7 36.9
14:10 1018 30.06 847 25.01 32.6 90.6 15 3.2 37.7
14:15 1018 30.06 847 25.01 33.2 91.8 14 2.6 36.6
14:20 1018 30.06 847 25.01 32.8 91.1 14 1.9 35.5
14:25 1018 30.06 847 25.01 32.1 89.7 16 3.1 37.7
14:30 1018 30.06 847 25.01 31.7 89 16 3.5 38.2
14:35 1018 30.06 847 25.01 31.3 88.4 18 4.2 39.6
14:40 1018 30.06 847 25.01 30.8 87.5 15 1.4 34.5
14:45 1018 30.06 847 25.01 31.1 88 17 3.9 39.1
14:50 1018 30.06 847 25.01 31.4 88.5 16 2.7 36.9
14:55 1018 30.06 847 25.01 31.2 88.2 15 2.3 36.1
15:00 1018 30.06 847 25.01 30.4 86.6 14 0.5 32.9
15:05 1018 30.06 847 25.01 30.4 86.6 14 0 32
15:10 1018 30.06 847 25.01 30.7 87.3 13 -0.4 31.4
15:15 1018 30.06 847 25.01 31.2 88.2 12 -1.5 29.4
15:20 1018 30.06 847 25.01 31.5 88.6 12 -1.5 29.3
15:25 1018 30.06 847 25.01 31.3 88.4 11 -1.8 28.8
15:30 1018 30.06 847 25.01 31.4 88.6 12 -1.4 29.4
15:35 1018 30.06 847 25.01 31.2 88.1 12 -1 30.2
15:40 1018 30.06 847 25.01 31.1 88 12 -1.3 29.7
15:45 1018 30.06 847 25.01 31 87.8 11 -2.5 27.5
15:50 1018 30.06 847 25.01 31 87.9 11 -2.3 27.8
15:55 1018 30.06 847 25.01 30.6 87.1 11 -3.5 25.8
16:00 1018 30.06 847 25.01 30.7 87.2 12 -1.7 29
16:05 1018 30.06 847 25.01 30.7 87.3 12 -1.1 30
16:10 1018 30.06 847 25.01 30.9 87.6 12 -1.4 29.4
16:15 1018 30.06 847 25.01 31.7 89.1 11 -2.6 27.4
16:20 1018 30.06 847 25.01 31.3 88.4 11 -1.8 28.8
16:25 1018 30.06 847 25.01 31 87.9 11 -1.9 28.5
16:30 1018 30.06 847 25.01 30.9 87.6 12 -1.7 28.9
16:35 1018 30.06 847 25.01 30.9 87.5 12 -1 30.2
16:40 1018 30.06 847 25.01 31.3 88.4 11 -1.9 28.6
16:45 1018 30.06 847 25.01 31.2 88.2 12 -1.6 29.2
16:50 1018 30.06 847 25.01 31.5 88.7 11 -1.7 28.9
16:55 1018 30.06 847 25.01 31.8 89.2 11 -1.5 29.3
17:00 1018 30.06 847 25.01 31.7 89 11 -1.4 29.4
17:05 1018 30.06 847 25.01 31.4 88.6 12 -0.5 31.1
17:10 1018 30.06 847 25.01 31.4 88.6 11 -1.7 28.9
17:15 1018 30.06 847 25.01 31.7 89.1 11 -1.7 29
17:20 1018 30.06 847 25.01 31.4 88.6 12 -1.4 29.5
17:25 1018 30.06 847 25.01 31.4 88.5 11 -2 28.4
17:30 1018 30.06 847 25.01 31.2 88.2 11 -2.2 28.1
17:35 1018 30.06 847 25.01 31.3 88.3 13 -0.2 31.6
17:40 1018 30.06 847 25.01 31.2 88.2 14 0.7 33.3
17:45 1018 30.06 847 25.01 30.8 87.5 13 -0.3 31.5
17:50 1018 30.06 847 25.01 31 87.8 12 -1 30.2
17:55 1018 30.06 847 25.01 31.2 88.1 15 1.5 34.7
18:00 1018 30.06 847 25.01 31 87.7 13 0.1 32.1
18:05 1018 30.06 847 25.01 30.9 87.5 14 0.5 32.8
18:10 1018 30.06 847 25.01 30.4 86.6 16 2 35.7
18:15 1018 30.06 847 25.01 30.1 86.2 15 0.9 33.7
18:20 1018 30.06 847 25.01 30.5 86.8 16 2.1 35.9
18:25 1018 30.06 847 25.01 30.2 86.4 21 6.1 43
18:30 1018 30.06 847 25.01 29.6 85.2 24 7.2 45
18:35 1018 30.06 847 25.01 29.2 84.6 23 6.5 43.6
18:40 1018 30.06 847 25.01 29.2 84.5 23 6.1 43
18:45 1018 30.06 847 25.01 29.5 85 19 3.7 38.7
18:50 1018 30.06 847 25.01 29.5 85 20 4.6 40.3
18:55 1018 30.06 847 25.01 29.5 85.1 21 5.4 41.8
19:00 1018 30.06 847 25.01 29.4 84.9 22 6.1 43
19:05 1018 30.06 847 25.01 29.3 84.7 21 5.3 41.5
19:10 1018 30.06 847 25.01 29.4 84.9 21 4.8 40.7
19:15 1018 30.06 847 25.01 29.4 84.9 21 5.2 41.4
19:20 1018 30.06 847 25.01 29.2 84.5 22 5.7 42.3
19:25 1018 30.06 847 25.01 29.1 84.4 22 5.7 42.3
19:30 1018 30.06 847 25.01 29 84.1 22 5.4 41.8
19:35 1018 30.06 848 25.04 28.7 83.6 23 6 42.9
19:40 1018 30.06 848 25.04 28.8 83.8 22 5.5 41.9
19:45 1019 30.09 848 25.04 29.1 84.4 22 5.5 42
19:50 1019 30.09 848 25.04 29.2 84.6 23 6 42.8
19:55 1019 30.09 848 25.04 28.9 84.1 23 5.8 42.4
20:00 1019 30.09 848 25.04 28.6 83.5 22 5.2 41.3
20:05 1019 30.09 848 25.04 28.2 82.7 22 4.6 40.3
20:10 1019 30.09 848 25.04 27.9 82.3 24 5.9 42.6
20:15 1019 30.09 848 25.04 27.7 81.9 23 5.3 41.5
20:20 1019 30.09 849 25.07 27.4 81.3 24 5.1 41.2
20:25 1019 30.09 849 25.07 27.2 80.9 24 5.1 41.1
20:30 1019 30.09 849 25.07 27 80.7 25 5.7 42.3
20:35 1020 30.12 849 25.07 26.8 80.3 27 6.3 43.4
20:40 1020 30.12 849 25.07 26.6 79.8 30 7.6 45.7
20:45 1020 30.12 849 25.07 26 78.9 30 7.2 45
20:50 1020 30.12 849 25.07 25.7 78.2 28 6.2 43.2
20:55 1020 30.12 849 25.07 25.5 77.8 28 5.8 42.5
21:00 1020 30.12 849 25.07 25.3 77.6 27 5.1 41.1
21:05 1020 30.12 849 25.07 25.1 77.2 27 5 40.9
21:10 1020 30.12 849 25.07 24.8 76.7 28 5.4 41.7
21:15 1021 30.15 850 25.1 24.6 76.4 29 5.9 42.6
21:20 1021 30.15 850 25.1 23.5 74.3 33 6.4 43.6
21:25 1021 30.15 850 25.1 22.8 73 34 6.5 43.7
21:30 1021 30.15 850 25.1 22.6 72.6 33 5.6 42.2
21:35 1021 30.15 850 25.1 22.8 73.1 33 6 42.8
21:40 1021 30.15 850 25.1 22.6 72.8 34 6.1 43
21:45 1021 30.15 850 25.1 22.6 72.6 33 5.8 42.5
21:50 1021 30.15 850 25.1 22.2 71.9 33 5.3 41.6
21:55 1021 30.15 850 25.1 22.3 72.2 32 5 41
22:00 1021 30.15 850 25.1 22.3 72.2 31 4.6 40.3
22:05 1021 30.15 850 25.1 22.5 72.4 30 4.3 39.7
22:10 1021 30.15 850 25.1 22.7 72.9 30 4.6 40.3
22:15 1021 30.15 850 25.1 22.6 72.7 30 4.5 40.2
22:20 1021 30.15 850 25.1 22.3 72.1 32 5.1 41.3
22:25 1021 30.15 851 25.13 21.6 70.9 33 4.8 40.6
22:30 1021 30.15 851 25.13 21.1 70 34 5 41
22:35 1022 30.18 851 25.13 20.8 69.4 35 4.9 40.9
22:40 1022 30.18 851 25.13 20.6 69 37 5.5 41.9
22:45 1022 30.18 851 25.13 20.4 68.7 38 5.6 42.2
22:50 1022 30.18 851 25.13 20.2 68.4 37 5.4 41.7
22:55 1022 30.18 851 25.13 19.9 67.9 40 6 42.7
23:00 1022 30.18 851 25.13 19.5 67.1 42 6.5 43.7
23:05 1022 30.18 851 25.13 19.4 66.9 40 5.6 42
23:10 1022 30.18 851 25.13 19.5 67.1 40 5.6 42.1
23:15 1022 30.18 851 25.13 19.7 67.4 38 5.1 41.2
23:20 1022 30.18 851 25.13 19.7 67.5 38 5.3 41.6
23:25 1022 30.18 851 25.13 19.8 67.7 41 6.3 43.4
23:30 1022 30.18 851 25.13 19.9 67.8 42 6.9 44.3
23:35 1022 30.18 851 25.13 19.7 67.4 40 5.7 42.2
23:40 1022 30.18 851 25.13 19.5 67 39 5.2 41.3
23:45 1022 30.18 851 25.13 19.7 67.5 39 5.5 42
23:50 1022 30.18 851 25.13 19.2 66.5 43 6.4 43.5
23:55 1022 30.18 851 25.13 18.5 65.2 45 6.5 43.7
24:00 1022 30.18 851 25.13 18.2 64.8 44 6 42.8